Dobrodošli na spletni strani vremenske postaje Senovo. Vse informacije so informativnega značaja, saj vremenska postaja ni del državne mreže meteoroloških postaj. AKTUALNIH OBVESTIL NI.


Posebna pozornost v zvezi z vremenskimi dogajanji ni potrebna.    Posebna pozornost v zvezi z vremenskimi dogajanji ni potrebna.

Pogled proti Armezu več informacij Pogled proti Armezu


Bohor več informacij Bohor


Radar strel več informacij blitzortung!


Radar padavin več informacij rain snow radar


Obiščite še:

Template documentation
and downloads

And another site



Weather Underground, zgodovina - Tekstovno

Dnevni povzetek za November 16, 2017 Enote:  Angleško    Metrično   Obe
« Predhodni Dan
Naslednji Dan »
Dnevni Tedenski Mesečni Letni Po meri
  Višja: Nižja: Povprečje:
Temperatura: TemperatureC °F 3.9 °F 5.3 °F
Točka rosišča: DewpointC °F -1.1 °F 0.3 °F
Vlažnost: Humidity % 57 % 71 %
Hitrost vetra: WindSpeedKMH mph 0.0 mph 2.9 mph
Sunki vetra: WindSpeedGustKMH mph - -
Veter:- - South
Zračni tlak: PressurehPa in 1021.9 in -
Padavine: 0.0 in    
Historical Graphs
 
 
Tabelarni podarki za November 16, 2017
Čas Temperatura Točka rosišča Zračni tlak Veter Hitrost vetra Sunki vetra Vlažnost Intenziteta padavin (urna)
TemperatureC °F DewpointC °F PressurehPa in Calm     Humidity % HourlyPrecipMM in
00:02 4.3 °F -0.9 °F 1024.9 in SSW 1.4 mph 5.5 mph 69 % 0.0 in
00:07 4.2 °F -0.8 °F 1026.0 in South 1.8 mph 5.5 mph 70 % 0.0 in
00:12 4.2 °F -0.8 °F 1026.0 in South 1.3 mph 4.0 mph 70 % 0.0 in
00:17 4.2 °F -0.8 °F 1026.0 in South 0.6 mph 4.0 mph 70 % 0.0 in
00:22 4.2 °F -0.8 °F 1026.0 in South 1.1 mph 4.0 mph 70 % 0.0 in
00:27 4.1 °F -0.9 °F 1026.0 in South 1.4 mph 3.2 mph 70 % 0.0 in
00:32 4.1 °F -0.7 °F 1026.0 in South 1.3 mph 3.2 mph 71 % 0.0 in
00:37 4.1 °F -0.7 °F 1026.0 in South 1.0 mph 2.6 mph 71 % 0.0 in
00:42 4.1 °F -0.7 °F 1026.0 in South 0.3 mph 2.6 mph 71 % 0.0 in
00:47 4.1 °F -0.7 °F 1026.0 in South 0.6 mph 3.5 mph 71 % 0.0 in
00:52 4.1 °F -0.5 °F 1026.0 in South 0.8 mph 4.3 mph 72 % 0.0 in
00:57 4.1 °F -0.5 °F 1026.0 in South 1.0 mph 4.3 mph 72 % 0.0 in
01:02 4.1 °F -0.5 °F 1026.0 in SSW 0.8 mph 4.7 mph 72 % 0.0 in
01:07 4.1 °F -0.5 °F 1026.0 in WSW 1.6 mph 4.7 mph 72 % 0.0 in
01:12 4.1 °F -0.5 °F 1026.0 in SW 1.4 mph 4.3 mph 72 % 0.0 in
01:17 4.1 °F -0.5 °F 1026.0 in South 1.8 mph 5.8 mph 72 % 0.0 in
01:22 4.1 °F -0.3 °F 1024.9 in South 3.2 mph 5.8 mph 73 % 0.0 in
01:27 4.0 °F -0.4 °F 1024.9 in South 1.4 mph 4.3 mph 73 % 0.0 in
01:32 4.0 °F -0.4 °F 1024.9 in South 1.3 mph 5.5 mph 73 % 0.0 in
01:37 4.0 °F -0.4 °F 1024.9 in South 2.7 mph 5.5 mph 73 % 0.0 in
01:42 4.0 °F -0.4 °F 1024.9 in South 3.5 mph 6.4 mph 73 % 0.0 in
01:47 4.0 °F -0.4 °F 1024.9 in South 3.1 mph 6.4 mph 73 % 0.0 in
01:52 4.0 °F -0.4 °F 1024.9 in SSW 2.3 mph 4.7 mph 73 % 0.0 in
01:57 4.0 °F -0.2 °F 1024.9 in South 3.1 mph 5.5 mph 74 % 0.0 in
02:02 4.1 °F -0.1 °F 1024.9 in South 4.0 mph 6.4 mph 74 % 0.0 in
02:07 4.1 °F -0.1 °F 1024.9 in SSW 5.1 mph 10.8 mph 74 % 0.0 in
02:12 4.1 °F -0.1 °F 1024.9 in SSW 4.7 mph 10.8 mph 74 % 0.0 in
02:17 4.1 °F -0.1 °F 1024.9 in South 3.1 mph 6.1 mph 74 % 0.0 in
02:22 4.2 °F 0.0 °F 1024.9 in SSW 1.8 mph 6.1 mph 74 % 0.0 in
02:27 4.2 °F 0.0 °F 1024.9 in WSW 3.4 mph 6.9 mph 74 % 0.0 in
02:32 4.3 °F 0.1 °F 1024.9 in SW 4.5 mph 6.9 mph 74 % 0.0 in
02:37 4.4 °F 0.2 °F 1024.9 in SSW 4.2 mph 6.4 mph 74 % 0.0 in
02:38 4.4 °F 0.2 °F 1024.9 in SSW 4.2 mph 6.4 mph 74 % 0.0 in
02:43 4.5 °F 0.3 °F 1024.9 in SSW 5.1 mph 9.0 mph 74 % 0.0 in
02:48 4.5 °F 0.3 °F 1024.9 in SSW 4.8 mph 9.0 mph 74 % 0.0 in
02:53 4.5 °F 0.1 °F 1024.9 in SSW 2.9 mph 8.7 mph 73 % 0.0 in
02:58 4.6 °F 0.2 °F 1024.9 in SSW 4.0 mph 9.3 mph 73 % 0.0 in
03:08 4.6 °F 0.2 °F 1024.9 in SW 5.1 mph 8.7 mph 73 % 0.0 in
03:13 4.5 °F 0.1 °F 1024.9 in SW 5.8 mph 8.7 mph 73 % 0.0 in
03:18 4.5 °F 0.1 °F 1024.9 in SW 5.3 mph 8.7 mph 73 % 0.0 in
03:23 4.4 °F 0.0 °F 1024.9 in SW 5.0 mph 7.9 mph 73 % 0.0 in
03:28 4.4 °F 0.0 °F 1024.9 in SW 4.2 mph 7.6 mph 73 % 0.0 in
03:33 4.4 °F 0.0 °F 1024.9 in SW 3.5 mph 5.8 mph 73 % 0.0 in
03:38 4.4 °F 0.0 °F 1024.9 in SW 4.2 mph 6.9 mph 73 % 0.0 in
03:43 4.3 °F -0.1 °F 1024.9 in SSW 5.1 mph 7.9 mph 73 % 0.0 in
03:48 4.3 °F -0.1 °F 1024.9 in SSW 4.5 mph 7.9 mph 73 % 0.0 in
03:53 4.3 °F -0.1 °F 1023.9 in SSW 4.2 mph 7.6 mph 73 % 0.0 in
03:58 4.3 °F -0.1 °F 1023.9 in SW 5.6 mph 9.0 mph 73 % 0.0 in
04:03 4.3 °F -0.1 °F 1023.9 in SW 6.4 mph 9.0 mph 73 % 0.0 in
04:08 4.3 °F -0.1 °F 1024.9 in SW 4.8 mph 7.9 mph 73 % 0.0 in
04:15 4.3 °F -0.1 °F 1024.9 in SSW 2.9 mph 4.3 mph 73 % 0.0 in
04:20 4.3 °F -0.1 °F 1024.9 in SW 3.4 mph 6.1 mph 73 % 0.0 in
04:23 4.3 °F -0.1 °F 1024.9 in SW 3.9 mph 6.1 mph 73 % 0.0 in
04:25 4.2 °F -0.2 °F 1024.9 in SW 3.5 mph 6.1 mph 73 % 0.0 in
04:30 4.2 °F 0.0 °F 1024.9 in WSW 2.3 mph 4.7 mph 74 % 0.0 in
04:35 4.2 °F 0.0 °F 1024.9 in West 1.1 mph 4.7 mph 74 % 0.0 in
04:40 4.1 °F -0.1 °F 1024.9 in SSW 1.8 mph 5.0 mph 74 % 0.0 in
04:45 4.1 °F -0.1 °F 1024.9 in SW 3.9 mph 6.1 mph 74 % 0.0 in
04:50 4.1 °F -0.1 °F 1024.9 in SW 4.0 mph 6.1 mph 74 % 0.0 in
04:55 4.1 °F -0.1 °F 1024.9 in SSW 2.7 mph 5.0 mph 74 % 0.0 in
05:00 4.1 °F -0.1 °F 1024.9 in SW 1.8 mph 4.3 mph 74 % 0.0 in
05:05 4.1 °F 0.1 °F 1024.9 in West 1.1 mph 4.3 mph 75 % 0.0 in
05:10 4.1 °F 0.1 °F 1024.9 in SW 1.0 mph 4.3 mph 75 % 0.0 in
05:15 4.0 °F -0.1 °F 1024.9 in SW 0.8 mph 4.3 mph 75 % 0.0 in
05:20 4.0 °F -0.1 °F 1023.9 in SW 1.3 mph 5.5 mph 75 % 0.0 in
05:25 4.0 °F -0.1 °F 1023.9 in SW 2.1 mph 5.8 mph 75 % 0.0 in
05:30 4.0 °F -0.1 °F 1023.9 in South 1.8 mph 5.8 mph 75 % 0.0 in
05:35 4.0 °F -0.1 °F 1023.9 in ESE 1.0 mph 4.3 mph 75 % 0.0 in
05:40 4.0 °F 0.2 °F 1023.9 in Calm     76 % 0.0 in
05:45 4.0 °F 0.2 °F 1023.9 in Calm   3.2 mph 76 % 0.0 in
05:50 4.0 °F 0.2 °F 1023.9 in SSE 1.6 mph 4.3 mph 76 % 0.0 in
05:55 4.0 °F 0.2 °F 1023.9 in SSE 1.9 mph 4.3 mph 76 % 0.0 in
06:00 4.0 °F 0.2 °F 1023.9 in South 1.1 mph 3.5 mph 76 % 0.0 in
06:05 4.0 °F 0.2 °F 1024.9 in South 1.8 mph 4.0 mph 76 % 0.0 in
06:10 4.0 °F 0.2 °F 1024.9 in SSW 2.4 mph 5.0 mph 76 % 0.0 in
06:15 4.0 °F 0.2 °F 1024.9 in SW 3.9 mph 6.1 mph 76 % 0.0 in
06:20 3.9 °F 0.2 °F 1024.9 in SW 3.4 mph 6.1 mph 77 % 0.0 in
06:25 3.9 °F 0.2 °F 1024.9 in SSW 2.4 mph 4.7 mph 77 % 0.0 in
06:30 3.9 °F 0.2 °F 1024.9 in SSW 2.4 mph 4.3 mph 77 % 0.0 in
06:35 3.9 °F 0.2 °F 1023.9 in SW 1.1 mph 3.2 mph 77 % 0.0 in
06:40 3.9 °F 0.2 °F 1023.9 in SSW 0.6 mph 4.0 mph 77 % 0.0 in
06:45 3.9 °F 0.2 °F 1023.9 in SSW 2.6 mph 5.0 mph 77 % 0.0 in
06:50 3.9 °F 0.4 °F 1024.9 in SSW 3.4 mph 5.0 mph 78 % 0.0 in
06:55 3.9 °F 0.4 °F 1024.9 in South 1.8 mph 4.7 mph 78 % 0.0 in
07:00 3.9 °F 0.4 °F 1024.9 in SSE 1.4 mph 4.7 mph 78 % 0.0 in
07:05 3.9 °F 0.4 °F 1024.9 in South 2.1 mph 4.7 mph 78 % 0.0 in
07:10 3.9 °F 0.4 °F 1024.9 in South 2.6 mph 5.5 mph 78 % 0.0 in
07:15 4.0 °F 0.5 °F 1024.9 in SSE 4.0 mph 7.9 mph 78 % 0.0 in
07:20 4.0 °F 0.5 °F 1024.9 in South 4.5 mph 7.9 mph 78 % 0.0 in
07:24 3.9 °F 0.4 °F 1024.9 in South 3.5 mph 6.1 mph 78 % 0.0 in
07:29 3.9 °F 0.4 °F 1024.9 in SSW 1.6 mph 4.3 mph 78 % 0.0 in
07:34 4.0 °F 0.5 °F 1024.9 in SSW 0.3 mph 3.2 mph 78 % 0.0 in
07:39 4.0 °F 0.5 °F 1024.9 in South 1.3 mph 4.7 mph 78 % 0.0 in
07:44 4.0 °F 0.5 °F 1024.9 in South 2.4 mph 4.7 mph 78 % 0.0 in
07:49 4.0 °F 0.5 °F 1024.9 in SSW 2.7 mph 5.0 mph 78 % 0.0 in
07:54 4.0 °F 0.5 °F 1024.9 in SW 3.2 mph 5.5 mph 78 % 0.0 in
07:59 4.0 °F 0.5 °F 1024.9 in WSW 3.2 mph 5.5 mph 78 % 0.0 in
08:04 4.0 °F 0.5 °F 1024.9 in WSW 3.1 mph 4.7 mph 78 % 0.0 in
08:09 4.0 °F 0.5 °F 1024.9 in WSW 1.6 mph 4.0 mph 78 % 0.0 in
08:15 4.1 °F 0.6 °F 1024.9 in WNW 0.3 mph 2.6 mph 78 % 0.0 in
08:20 4.1 °F 0.8 °F 1024.9 in NNW 1.0 mph 4.0 mph 79 % 0.0 in
08:25 4.1 °F 0.8 °F 1024.9 in WNW 1.4 mph 4.0 mph 79 % 0.0 in
08:30 4.2 °F 0.9 °F 1024.9 in West 2.4 mph 6.1 mph 79 % 0.0 in
08:35 4.2 °F 0.9 °F 1024.9 in WNW 2.7 mph 6.1 mph 79 % 0.0 in
08:40 4.3 °F 1.0 °F 1024.9 in WNW 1.0 mph 4.0 mph 79 % 0.0 in
08:45 4.3 °F 1.0 °F 1024.9 in Calm   2.1 mph 79 % 0.0 in
08:50 4.4 °F 1.1 °F 1026.0 in Calm   2.1 mph 79 % 0.0 in
08:55 4.4 °F 1.1 °F 1026.0 in SW 0.5 mph 3.2 mph 79 % 0.0 in
09:00 4.5 °F 1.2 °F 1026.0 in SW 1.1 mph 4.0 mph 79 % 0.0 in
09:05 4.5 °F 1.2 °F 1026.0 in SW 1.0 mph 4.0 mph 79 % 0.0 in
09:10 4.6 °F 1.3 °F 1026.0 in SW 0.3 mph 2.6 mph 79 % 0.0 in
09:15 4.6 °F 1.3 °F 1026.0 in NW 0.2 mph 2.6 mph 79 % 0.0 in
09:20 4.7 °F 1.4 °F 1024.9 in NW 0.2 mph 2.6 mph 79 % 0.0 in
09:25 4.8 °F 1.4 °F 1024.9 in NW 0.3 mph 3.2 mph 79 % 0.0 in
09:30 4.8 °F 1.4 °F 1024.9 in NW 1.0 mph 4.7 mph 79 % 0.0 in
09:35 4.9 °F 1.6 °F 1024.9 in WNW 2.3 mph 5.5 mph 79 % 0.0 in
09:40 5.0 °F 1.7 °F 1024.9 in WNW 2.7 mph 5.5 mph 79 % 0.0 in
09:45 5.0 °F 1.7 °F 1024.9 in SE 2.6 mph 5.0 mph 79 % 0.0 in
09:50 5.1 °F 1.8 °F 1026.0 in SE 2.1 mph 5.0 mph 79 % 0.0 in
09:55 5.2 °F 1.8 °F 1026.0 in East 1.1 mph 4.7 mph 79 % 0.0 in
10:00 5.3 °F 1.8 °F 1026.0 in East 1.9 mph 5.5 mph 78 % 0.0 in
10:05 5.4 °F 1.9 °F 1026.0 in East 3.9 mph 10.5 mph 78 % 0.0 in
10:10 5.6 °F 2.1 °F 1026.0 in ENE 5.8 mph 10.5 mph 78 % 0.0 in
10:15 5.7 °F 2.0 °F 1026.0 in ENE 5.3 mph 10.1 mph 77 % 0.0 in
10:20 5.8 °F 2.1 °F 1026.0 in ESE 5.3 mph 9.3 mph 77 % 0.0 in
10:25 5.8 °F 1.9 °F 1026.0 in ESE 5.3 mph 9.3 mph 76 % 0.0 in
10:30 5.9 °F 2.0 °F 1026.0 in East 4.3 mph 7.9 mph 76 % 0.0 in
10:35 6.0 °F 1.9 °F 1024.9 in East 4.8 mph 8.7 mph 75 % 0.0 in
10:40 6.2 °F 2.1 °F 1024.9 in ENE 5.3 mph 8.7 mph 75 % 0.0 in
10:45 6.3 °F 2.0 °F 1024.9 in East 4.8 mph 8.7 mph 74 % 0.0 in
10:50 6.4 °F 2.1 °F 1024.9 in ESE 4.5 mph 10.1 mph 74 % 0.0 in
10:55 6.5 °F 2.0 °F 1024.9 in ESE 4.8 mph 10.1 mph 73 % 0.0 in
11:05 6.7 °F 2.2 °F 1024.9 in ESE 4.7 mph 7.9 mph 73 % 0.0 in
11:10 6.8 °F 2.1 °F 1024.9 in ESE 5.5 mph 9.7 mph 72 % 0.0 in
11:15 6.9 °F 2.2 °F 1024.9 in ESE 5.8 mph 9.7 mph 72 % 0.0 in
11:20 7.0 °F 2.1 °F 1024.9 in ESE 5.6 mph 10.1 mph 71 % 0.0 in
11:25 7.0 °F 1.9 °F 1024.9 in ESE 5.3 mph 10.1 mph 70 % 0.0 in
11:30 7.1 °F 2.0 °F 1024.9 in ESE 5.5 mph 10.1 mph 70 % 0.0 in
11:35 7.2 °F 1.9 °F 1024.9 in ESE 6.1 mph 10.5 mph 69 % 0.0 in
11:40 7.2 °F 1.9 °F 1024.9 in ESE 6.3 mph 10.5 mph 69 % 0.0 in
11:45 7.2 °F 1.7 °F 1024.9 in ESE 6.0 mph 10.1 mph 68 % 0.0 in
11:50 7.2 °F 1.7 °F 1023.9 in ESE 5.6 mph 11.6 mph 68 % 0.0 in
11:55 7.2 °F 1.5 °F 1023.9 in East 5.6 mph 11.6 mph 67 % 0.0 in
12:00 7.2 °F 1.3 °F 1023.9 in East 5.6 mph 10.1 mph 66 % 0.0 in
12:02 7.3 °F 1.4 °F 1023.9 in East 5.5 mph 10.1 mph 66 % 0.0 in
12:07 7.2 °F 1.1 °F 1023.9 in ENE 5.5 mph 10.1 mph 65 % 0.0 in
12:12 7.3 °F 1.2 °F 1023.9 in ENE 4.8 mph 7.6 mph 65 % 0.0 in
12:17 7.3 °F 0.9 °F 1023.9 in East 4.8 mph 7.6 mph 64 % 0.0 in
12:22 7.3 °F 0.7 °F 1023.9 in East 5.1 mph 9.0 mph 63 % 0.0 in
12:27 7.3 °F 0.7 °F 1023.9 in ESE 5.5 mph 12.6 mph 63 % 0.0 in
12:32 7.3 °F 0.5 °F 1023.9 in ESE 6.1 mph 12.6 mph 62 % 0.0 in
12:37 7.3 °F 0.3 °F 1023.9 in East 6.4 mph 11.9 mph 61 % 0.0 in
12:42 7.3 °F 0.1 °F 1023.9 in East 6.6 mph 9.7 mph 60 % 0.0 in
12:47 7.3 °F 0.1 °F 1023.9 in East 5.8 mph 10.1 mph 60 % 0.0 in
12:52 7.3 °F -0.2 °F 1022.9 in East 5.8 mph 10.5 mph 59 % 0.0 in
12:57 7.3 °F -0.2 °F 1022.9 in ESE 7.7 mph 14.0 mph 59 % 0.0 in
13:02 7.3 °F -0.2 °F 1022.9 in ESE 7.6 mph 14.0 mph 59 % 0.0 in
13:07 7.3 °F -0.2 °F 1023.9 in ESE 6.9 mph 11.9 mph 59 % 0.0 in
13:12 7.2 °F -0.3 °F 1023.9 in ESE 7.6 mph 11.9 mph 59 % 0.0 in
13:17 7.1 °F -0.6 °F 1023.9 in East 8.0 mph 16.9 mph 58 % 0.0 in
13:22 7.0 °F -0.7 °F 1022.9 in ESE 7.9 mph 16.9 mph 58 % 0.0 in
13:27 7.0 °F -0.9 °F 1022.9 in ESE 7.7 mph 14.0 mph 57 % 0.0 in
13:32 6.9 °F -1.1 °F 1022.9 in East 8.4 mph 14.0 mph 57 % 0.0 in
13:37 6.9 °F -1.1 °F 1023.9 in East 8.4 mph 14.0 mph 57 % 0.0 in
13:39 6.8 °F -1.1 °F 1023.9 in East 7.9 mph 14.0 mph 57 % 0.0 in
13:44 6.8 °F -1.1 °F 1023.9 in East 7.2 mph 16.3 mph 57 % 0.0 in
13:49 6.8 °F -1.1 °F 1023.9 in East 7.7 mph 16.3 mph 57 % 0.0 in
13:54 6.8 °F -1.1 °F 1023.9 in East 6.9 mph 14.0 mph 57 % 0.0 in
13:59 6.8 °F -1.1 °F 1023.9 in East 6.4 mph 10.5 mph 57 % 0.0 in
14:04 6.8 °F -1.1 °F 1023.9 in East 6.0 mph 10.5 mph 57 % 0.0 in
14:09 6.8 °F -1.1 °F 1023.9 in East 5.0 mph 9.7 mph 57 % 0.0 in
14:14 6.8 °F -1.1 °F 1023.9 in East 5.1 mph 9.7 mph 57 % 0.0 in
14:19 6.8 °F -0.9 °F 1023.9 in East 5.0 mph 9.0 mph 58 % 0.0 in
14:24 6.7 °F -1.0 °F 1023.9 in ESE 6.0 mph 9.7 mph 58 % 0.0 in
14:29 6.7 °F -1.0 °F 1023.9 in ESE 6.9 mph 13.0 mph 58 % 0.0 in
14:34 6.7 °F -1.0 °F 1023.9 in ESE 6.6 mph 13.0 mph 58 % 0.0 in
14:39 6.7 °F -1.0 °F 1023.9 in East 6.3 mph 11.6 mph 58 % 0.0 in
14:44 6.7 °F -1.0 °F 1023.9 in East 5.0 mph 8.7 mph 58 % 0.0 in
14:49 6.7 °F -1.0 °F 1023.9 in East 4.8 mph 8.7 mph 58 % 0.0 in
14:54 6.6 °F -0.8 °F 1023.9 in ESE 5.1 mph 8.7 mph 59 % 0.0 in
14:59 6.6 °F -0.8 °F 1023.9 in ESE 5.3 mph 10.1 mph 59 % 0.0 in
15:04 6.6 °F -0.8 °F 1022.9 in ESE 5.6 mph 10.1 mph 59 % 0.0 in
15:09 6.6 °F -0.8 °F 1022.9 in ESE 5.6 mph 10.8 mph 59 % 0.0 in
15:14 6.6 °F -0.8 °F 1022.9 in ESE 5.6 mph 10.8 mph 59 % 0.0 in
15:19 6.6 °F -0.8 °F 1023.9 in East 5.0 mph 9.3 mph 59 % 0.0 in
15:24 6.6 °F -0.8 °F 1023.9 in East 4.5 mph 6.4 mph 59 % 0.0 in
15:29 6.5 °F -0.9 °F 1023.9 in ESE 5.5 mph 9.7 mph 59 % 0.0 in
15:39 6.5 °F -0.7 °F 1023.9 in ESE 5.3 mph 9.7 mph 60 % 0.0 in
15:44 6.5 °F -0.7 °F 1023.9 in SE 5.0 mph 9.7 mph 60 % 0.0 in
15:49 6.5 °F -0.7 °F 1022.9 in SE 4.7 mph 7.6 mph 60 % 0.0 in
15:54 6.4 °F -0.6 °F 1022.9 in ESE 4.7 mph 7.6 mph 61 % 0.0 in
15:59 6.4 °F -0.6 °F 1022.9 in ESE 4.3 mph 6.9 mph 61 % 0.0 in
16:04 6.4 °F -0.6 °F 1022.9 in East 3.2 mph 6.9 mph 61 % 0.0 in
16:09 6.4 °F -0.6 °F 1022.9 in ESE 3.4 mph 6.9 mph 61 % 0.0 in
16:14 6.4 °F -0.6 °F 1022.9 in SE 3.9 mph 6.9 mph 61 % 0.0 in
16:19 6.3 °F -0.4 °F 1023.9 in SE 4.5 mph 9.3 mph 62 % 0.0 in
16:24 6.3 °F -0.4 °F 1023.9 in SE 5.5 mph 9.3 mph 62 % 0.0 in
16:29 6.3 °F -0.4 °F 1023.9 in ESE 5.1 mph 7.9 mph 62 % 0.0 in
16:34 6.3 °F -0.4 °F 1022.9 in ESE 4.2 mph 6.1 mph 62 % 0.0 in
16:39 6.2 °F -0.6 °F 1022.9 in ESE 4.0 mph 7.6 mph 62 % 0.0 in
16:44 6.2 °F -0.6 °F 1022.9 in ESE 3.9 mph 7.6 mph 62 % 0.0 in
16:49 6.1 °F -0.7 °F 1022.9 in ESE 3.7 mph 7.9 mph 62 % 0.0 in
16:54 6.1 °F -0.7 °F 1022.9 in ESE 4.0 mph 7.9 mph 62 % 0.0 in
16:59 6.1 °F -0.7 °F 1022.9 in East 3.2 mph 7.9 mph 62 % 0.0 in
17:04 6.1 °F -0.7 °F 1022.9 in East 1.0 mph 5.8 mph 62 % 0.0 in
17:09 6.1 °F -0.7 °F 1022.9 in ESE 1.1 mph 4.3 mph 62 % 0.0 in
17:14 6.1 °F -0.7 °F 1022.9 in ESE 2.6 mph 6.1 mph 62 % 0.0 in
17:19 6.0 °F -0.7 °F 1022.9 in ESE 3.1 mph 6.1 mph 62 % 0.0 in
17:24 6.0 °F -0.5 °F 1022.9 in ESE 3.1 mph 4.7 mph 63 % 0.0 in
17:29 6.0 °F -0.5 °F 1022.9 in ESE 3.9 mph 6.9 mph 63 % 0.0 in
17:34 6.0 °F -0.5 °F 1022.9 in SE 4.7 mph 9.0 mph 63 % 0.0 in
17:39 6.0 °F -0.5 °F 1022.9 in SE 4.0 mph 9.0 mph 63 % 0.0 in
17:44 6.0 °F -0.5 °F 1022.9 in SE 4.0 mph 8.7 mph 63 % 0.0 in
17:49 6.0 °F -0.5 °F 1022.9 in SE 4.3 mph 8.7 mph 63 % 0.0 in
17:54 6.0 °F -0.5 °F 1022.9 in SE 4.2 mph 7.6 mph 63 % 0.0 in
17:59 6.0 °F -0.5 °F 1022.9 in SE 4.2 mph 6.4 mph 63 % 0.0 in
18:04 6.0 °F -0.5 °F 1022.9 in SSE 3.9 mph 6.4 mph 63 % 0.0 in
18:09 6.0 °F -0.3 °F 1022.9 in SSE 3.1 mph 5.8 mph 64 % 0.0 in
18:14 5.9 °F -0.2 °F 1022.9 in SSE 1.9 mph 5.8 mph 65 % 0.0 in
18:19 5.9 °F -0.2 °F 1022.9 in SE 1.0 mph 4.0 mph 65 % 0.0 in
18:24 5.8 °F -0.3 °F 1022.9 in Calm     65 % 0.0 in
18:29 5.8 °F -0.3 °F 1022.9 in Calm     65 % 0.0 in
18:34 5.7 °F -0.2 °F 1023.9 in Calm     66 % 0.0 in
18:39 5.7 °F -0.2 °F 1023.9 in WNW 0.2 mph 4.3 mph 66 % 0.0 in
18:44 5.7 °F 0.1 °F 1023.9 in WNW 0.6 mph 4.3 mph 67 % 0.0 in
18:49 5.7 °F 0.1 °F 1022.9 in WNW 1.1 mph 3.2 mph 67 % 0.0 in
18:55 5.6 °F -0.1 °F 1022.9 in WNW 1.8 mph 3.5 mph 67 % 0.0 in
19:00 5.6 °F -0.1 °F 1022.9 in WNW 1.9 mph 4.0 mph 67 % 0.0 in
19:05 5.6 °F 0.2 °F 1023.9 in WNW 1.3 mph 4.0 mph 68 % 0.0 in
19:10 5.6 °F 0.2 °F 1023.9 in WNW 0.3 mph 4.0 mph 68 % 0.0 in
19:15 5.5 °F 0.3 °F 1023.9 in Calm     69 % 0.0 in
19:20 5.5 °F 0.3 °F 1022.9 in South 0.2 mph 2.6 mph 69 % 0.0 in
19:25 5.5 °F 0.3 °F 1022.9 in SE 0.5 mph 3.5 mph 69 % 0.0 in
19:30 5.5 °F 0.4 °F 1022.9 in South 1.6 mph 5.8 mph 70 % 0.0 in
19:35 5.5 °F 0.4 °F 1023.9 in SSW 2.9 mph 5.8 mph 70 % 0.0 in
19:40 5.4 °F 0.4 °F 1023.9 in SW 2.9 mph 5.5 mph 70 % 0.0 in
19:45 5.4 °F 0.6 °F 1023.9 in SW 2.9 mph 5.5 mph 71 % 0.0 in
19:50 5.4 °F 0.6 °F 1023.9 in SW 3.4 mph 5.0 mph 71 % 0.0 in
19:55 5.3 °F 0.4 °F 1023.9 in WSW 2.3 mph 4.3 mph 71 % 0.0 in
20:00 5.3 °F 0.7 °F 1023.9 in West 0.8 mph 3.5 mph 72 % 0.0 in
20:05 5.3 °F 0.7 °F 1022.9 in Calm     72 % 0.0 in
20:10 5.3 °F 0.7 °F 1022.9 in Calm     72 % 0.0 in
20:15 5.3 °F 0.7 °F 1022.9 in Calm     72 % 0.0 in
20:20 5.3 °F 0.7 °F 1022.9 in Calm     72 % 0.0 in
20:25 5.3 °F 0.7 °F 1022.9 in Calm     72 % 0.0 in
20:30 5.2 °F 0.8 °F 1022.9 in Calm     73 % 0.0 in
20:35 5.2 °F 0.9 °F 1023.9 in Calm     74 % 0.0 in
20:40 5.2 °F 0.9 °F 1023.9 in Calm     74 % 0.0 in
20:45 5.2 °F 0.9 °F 1023.9 in Calm     74 % 0.0 in
20:50 5.2 °F 0.9 °F 1022.9 in Calm     74 % 0.0 in
20:55 5.2 °F 0.9 °F 1022.9 in Calm     74 % 0.0 in
21:00 5.2 °F 1.1 °F 1022.9 in Calm     75 % 0.0 in
21:05 5.1 °F 1.1 °F 1022.9 in Calm     75 % 0.0 in
21:10 5.1 °F 1.1 °F 1022.9 in Calm     75 % 0.0 in
21:15 5.1 °F 1.1 °F 1022.9 in Calm     75 % 0.0 in
21:25 5.1 °F 1.2 °F 1022.9 in Calm     76 % 0.0 in
21:27 5.1 °F 1.2 °F 1022.9 in Calm     76 % 0.0 in
21:32 5.1 °F 1.2 °F 1022.9 in Calm     76 % 0.0 in
21:37 5.1 °F 1.2 °F 1021.9 in South 0.6 mph 4.0 mph 76 % 0.0 in
21:42 5.1 °F 1.2 °F 1021.9 in South 2.1 mph 4.7 mph 76 % 0.0 in
21:47 5.1 °F 1.2 °F 1021.9 in South 2.1 mph 4.7 mph 76 % 0.0 in
21:52 5.1 °F 1.2 °F 1021.9 in South 1.0 mph 3.2 mph 76 % 0.0 in
21:57 5.1 °F 1.4 °F 1021.9 in SSW 1.3 mph 4.3 mph 77 % 0.0 in
22:02 5.1 °F 1.4 °F 1021.9 in SSW 0.6 mph 4.3 mph 77 % 0.0 in
22:07 5.1 °F 1.4 °F 1021.9 in Calm     77 % 0.0 in
22:12 5.1 °F 1.4 °F 1021.9 in Calm     77 % 0.0 in
22:22 5.0 °F 1.3 °F 1021.9 in Calm     77 % 0.0 in
22:27 5.0 °F 1.3 °F 1021.9 in Calm     77 % 0.0 in
22:32 5.0 °F 1.3 °F 1021.9 in Calm     77 % 0.0 in
22:37 5.0 °F 1.3 °F 1021.9 in Calm     77 % 0.0 in
22:42 5.0 °F 1.3 °F 1021.9 in Calm     77 % 0.0 in
22:47 5.0 °F 1.5 °F 1021.9 in Calm     78 % 0.0 in
22:52 5.0 °F 1.5 °F 1021.9 in Calm     78 % 0.0 in
22:57 5.0 °F 1.5 °F 1021.9 in Calm     78 % 0.0 in
23:02 5.0 °F 1.5 °F 1021.9 in Calm     78 % 0.0 in
23:07 5.0 °F 1.5 °F 1022.9 in Calm     78 % 0.0 in
23:12 5.0 °F 1.5 °F 1022.9 in Calm     78 % 0.0 in
23:22 5.0 °F 1.5 °F 1021.9 in Calm     78 % 0.0 in
23:27 5.0 °F 1.5 °F 1021.9 in Calm     78 % 0.0 in
23:32 5.0 °F 1.7 °F 1021.9 in Calm     79 % 0.0 in
23:37 5.0 °F 1.7 °F 1021.9 in Calm     79 % 0.0 in
23:42 5.0 °F 1.7 °F 1021.9 in Calm     79 % 0.0 in
23:47 5.0 °F 1.7 °F 1021.9 in Calm     79 % 0.0 in
23:52 5.0 °F 1.7 °F 1021.9 in Calm     79 % 0.0 in
23:57 4.9 °F 1.7 °F 1021.9 in Calm     80 % 0.0 in
Vremenska postaja Senovo
Podatki zbrani iz Weather Underground - 2.75 mb

Script developed by  Jim McMurry - jmcmurry@mwt.net Adapted for the template by  Wim van der Kuil - Leuven-Template.eu

Vremenski podatki so objavljeni na:

European Weather Network

WeatherCloud

Weather Underground

AWEKAS

HAMweather, WeatherForYou, PWS Weather

MapView

Geostik

Slovenia weather network

Oprema, ki se uporablja:

Vremenski program
Cumulus

Vremenski server
Asus

Cumulus

Asus